^^
Grace C. Lehan Memorial Weather Station Historical Data
Daily Summary for May 29, 2021 Units:  Both    English   Metric
Daily Weekly Monthly Yearly
  High: Low: Average:
Temperature: 20 °F /  -6.7 °C 8.2 °F /  -13.2 °C 15.1 °F /  -9.4 °C
Dew Point: 6.1 °F /  -14.4 °C -2.8 °F /  -19.3 °C 2.9 °F /  -16.2 °C
Humidity: 69% 47.6% 58%
Wind Speed: 14.7mph /  23.7km/h - 6.4mph /  10.3km/h
Wind Gust: 30mph /  48.3km/h - -
Wind- - NW
Pressure: 30.18 in /  1021.9 hPa 29.97 in /  1014.8 hPa -
Precipitation: 0.00 in /  0 mm    
 
 
Tabular Data for May 29, 2021
Time Temperature Dew Point Pressure Wind Wind Speed Wind Gust Humidity Rainfall Rate (Hourly) solar
00:04 16.8 °F /  -8.4 °C 5.3 °F /  -14.8 °C 30.05in /  1017.5hPa NW 7.3mph /  11.7km/h 24mph /  38.6km/h 60% 0.00in /  0mm 0 W/m2
00:09 16.7 °F /  -8.5 °C 5.2 °F /  -14.9 °C 30.05in /  1017.5hPa NW 3.8mph /  6.1km/h 14mph /  22.5km/h 60% 0.00in /  0mm 0 W/m2
00:14 16.6 °F /  -8.6 °C 5.4 °F /  -14.8 °C 30.05in /  1017.5hPa NW 6.4mph /  10.3km/h 15mph /  24.1km/h 60.9% 0.00in /  0mm 0 W/m2
00:19 16.4 °F /  -8.7 °C 5.4 °F /  -14.8 °C 30.05in /  1017.5hPa NW 8.5mph /  13.7km/h 16mph /  25.7km/h 61% 0.00in /  0mm 0 W/m2
00:24 16.4 °F /  -8.7 °C 5.3 °F /  -14.8 °C 30.04in /  1017.2hPa NW 7.1mph /  11.4km/h 16mph /  25.7km/h 61% 0.00in /  0mm 0 W/m2
00:29 16.4 °F /  -8.7 °C 5.6 °F /  -14.7 °C 30.04in /  1017.2hPa NW 8mph /  12.9km/h 20mph /  32.2km/h 61.8% 0.00in /  0mm 0 W/m2
00:34 16.4 °F /  -8.7 °C 5.7 °F /  -14.6 °C 30.04in /  1017.2hPa NW 7.4mph /  11.9km/h 20mph /  32.2km/h 62% 0.00in /  0mm 0 W/m2
00:39 16.4 °F /  -8.7 °C 5.7 °F /  -14.6 °C 30.04in /  1017.2hPa NW 9.5mph /  15.3km/h 20mph /  32.2km/h 62% 0.00in /  0mm 0 W/m2
00:44 16.4 °F /  -8.7 °C 5.7 °F /  -14.6 °C 30.04in /  1017.2hPa NW 10.2mph /  16.4km/h 22mph /  35.4km/h 62% 0.00in /  0mm 0 W/m2
00:49 16.4 °F /  -8.7 °C 5.7 °F /  -14.6 °C 30.03in /  1016.8hPa WNW 4.5mph /  7.2km/h 22mph /  35.4km/h 62.2% 0.00in /  0mm 0 W/m2
00:54 16.3 °F /  -8.7 °C 5.9 °F /  -14.5 °C 30.03in /  1016.8hPa NW 6.4mph /  10.3km/h 22mph /  35.4km/h 63% 0.00in /  0mm 0 W/m2
00:59 16.2 °F /  -8.8 °C 5.9 °F /  -14.5 °C 30.03in /  1016.8hPa NW 5.5mph /  8.9km/h 22mph /  35.4km/h 63% 0.00in /  0mm 0 W/m2
01:04 16.2 °F /  -8.8 °C 5.8 °F /  -14.6 °C 30.03in /  1016.8hPa NW 4.3mph /  6.9km/h 22mph /  35.4km/h 63% 0.00in /  0mm 0 W/m2
01:09 16.1 °F /  -8.8 °C 6 °F /  -14.4 °C 30.03in /  1016.8hPa NW 4.8mph /  7.7km/h 11mph /  17.7km/h 63.8% 0.00in /  0mm 0 W/m2
01:14 16 °F /  -8.9 °C 6 °F /  -14.4 °C 30.03in /  1016.8hPa NW 4.4mph /  7.1km/h 12mph /  19.3km/h 64% 0.00in /  0mm 0 W/m2
01:19 15.9 °F /  -8.9 °C 5.9 °F /  -14.5 °C 30.03in /  1016.8hPa NNW 4mph /  6.4km/h 12mph /  19.3km/h 64% 0.00in /  0mm 0 W/m2
01:24 15.8 °F /  -9 °C 6 °F /  -14.4 °C 30.03in /  1016.8hPa NW 4.5mph /  7.2km/h 12mph /  19.3km/h 64.5% 0.00in /  0mm 0 W/m2
01:29 15.8 °F /  -9 °C 6.1 °F /  -14.4 °C 30.03in /  1016.8hPa NW 5.4mph /  8.7km/h 12mph /  19.3km/h 65% 0.00in /  0mm 0 W/m2
01:34 15.8 °F /  -9 °C 6.1 °F /  -14.4 °C 30.03in /  1016.8hPa NW 4.7mph /  7.6km/h 13mph /  20.9km/h 65% 0.00in /  0mm 0 W/m2
01:39 15.7 °F /  -9.1 °C 6 °F /  -14.4 °C 30.03in /  1016.8hPa NNW 4mph /  6.4km/h 13mph /  20.9km/h 65% 0.00in /  0mm 0 W/m2
01:44 15.7 °F /  -9.1 °C 6 °F /  -14.4 °C 30.03in /  1016.8hPa NW 6.3mph /  10.1km/h 13mph /  20.9km/h 65% 0.00in /  0mm 0 W/m2
01:49 15.7 °F /  -9.1 °C 6 °F /  -14.4 °C 30.02in /  1016.5hPa NW 4.6mph /  7.4km/h 18mph /  29km/h 65% 0.00in /  0mm 0 W/m2
01:54 15.7 °F /  -9.1 °C 6 °F /  -14.4 °C 30.02in /  1016.5hPa NNW 3.3mph /  5.3km/h 18mph /  29km/h 65% 0.00in /  0mm 0 W/m2
01:59 15.7 °F /  -9.1 °C 6 °F /  -14.4 °C 30.02in /  1016.5hPa NW 3.7mph /  6km/h 18mph /  29km/h 65% 0.00in /  0mm 0 W/m2
02:04 15.6 °F /  -9.1 °C 5.9 °F /  -14.5 °C 30.02in /  1016.5hPa NW 4.4mph /  7.1km/h 18mph /  29km/h 65% 0.00in /  0mm 0 W/m2
02:09 15.5 °F /  -9.2 °C 5.9 °F /  -14.5 °C 30.02in /  1016.5hPa NW 4.2mph /  6.8km/h 12mph /  19.3km/h 65% 0.00in /  0mm 0 W/m2
02:14 15.5 °F /  -9.2 °C 5.8 °F /  -14.6 °C 30.02in /  1016.5hPa NW 6.2mph /  10km/h 14mph /  22.5km/h 65% 0.00in /  0mm 0 W/m2
02:19 15.5 °F /  -9.2 °C 5.9 °F /  -14.5 °C 30.01in /  1016.1hPa NW 3.1mph /  5km/h 14mph /  22.5km/h 65% 0.00in /  0mm 0 W/m2
02:24 15.5 °F /  -9.2 °C 5.9 °F /  -14.5 °C 30.01in /  1016.1hPa WNW 3.3mph /  5.3km/h 14mph /  22.5km/h 65% 0.00in /  0mm 0 W/m2
02:29 15.4 °F /  -9.2 °C 5.8 °F /  -14.6 °C 30.01in /  1016.1hPa NW 4.1mph /  6.6km/h 14mph /  22.5km/h 65.2% 0.00in /  0mm 0 W/m2
02:34 15.4 °F /  -9.2 °C 6 °F /  -14.4 °C 30.01in /  1016.1hPa NW 5mph /  8km/h 14mph /  22.5km/h 65.8% 0.00in /  0mm 0 W/m2
02:39 15.3 °F /  -9.3 °C 5.7 °F /  -14.6 °C 30.01in /  1016.1hPa NW 5.8mph /  9.3km/h 13mph /  20.9km/h 65% 0.00in /  0mm 0 W/m2
02:44 15.3 °F /  -9.3 °C 5.7 °F /  -14.6 °C 30.01in /  1016.1hPa NW 6.2mph /  10km/h 13mph /  20.9km/h 65% 0.00in /  0mm 0 W/m2
02:49 15.4 °F /  -9.2 °C 5.7 °F /  -14.6 °C 30.01in /  1016.1hPa WNW 7.6mph /  12.2km/h 15mph /  24.1km/h 65% 0.00in /  0mm 0 W/m2
02:54 15.4 °F /  -9.2 °C 5.8 °F /  -14.6 °C 30.01in /  1016.1hPa NW 4.9mph /  7.9km/h 15mph /  24.1km/h 65% 0.00in /  0mm 0 W/m2
02:59 15.4 °F /  -9.2 °C 5.7 °F /  -14.6 °C 30.01in /  1016.1hPa NW 5.2mph /  8.4km/h 15mph /  24.1km/h 65% 0.00in /  0mm 0 W/m2
03:04 15.3 °F /  -9.3 °C 5.6 °F /  -14.7 °C 30.00in /  1015.8hPa NW 5.4mph /  8.7km/h 15mph /  24.1km/h 64.8% 0.00in /  0mm 0 W/m2
03:09 15.3 °F /  -9.3 °C 5.3 °F /  -14.8 °C 30.00in /  1015.8hPa NW 4.9mph /  7.9km/h 13mph /  20.9km/h 64% 0.00in /  0mm 0 W/m2
03:14 15.3 °F /  -9.3 °C 5.3 °F /  -14.8 °C 30.00in /  1015.8hPa NW 5.2mph /  8.4km/h 13mph /  20.9km/h 64% 0.00in /  0mm 0 W/m2
03:19 15.2 °F /  -9.3 °C 5.2 °F /  -14.9 °C 30.00in /  1015.8hPa NW 3.2mph /  5.1km/h 13mph /  20.9km/h 64% 0.00in /  0mm 0 W/m2
03:24 15.1 °F /  -9.4 °C 5.1 °F /  -14.9 °C 30.00in /  1015.8hPa NNW 3.8mph /  6.1km/h 13mph /  20.9km/h 64% 0.00in /  0mm 0 W/m2
03:29 15 °F /  -9.4 °C 5 °F /  -15 °C 30.00in /  1015.8hPa NW 5.9mph /  9.5km/h 14mph /  22.5km/h 64% 0.00in /  0mm 0 W/m2
03:34 14.9 °F /  -9.5 °C 5.2 °F /  -14.9 °C 30.00in /  1015.8hPa NNW 4mph /  6.4km/h 14mph /  22.5km/h 64.6% 0.00in /  0mm 0 W/m2
03:39 14.9 °F /  -9.5 °C 5.3 °F /  -14.8 °C 30.00in /  1015.8hPa NW 4mph /  6.4km/h 11mph /  17.7km/h 65% 0.00in /  0mm 0 W/m2
03:44 14.8 °F /  -9.6 °C 5.2 °F /  -14.9 °C 30.00in /  1015.8hPa NW 5.2mph /  8.4km/h 11mph /  17.7km/h 65% 0.00in /  0mm 0 W/m2
03:49 14.7 °F /  -9.6 °C 5.1 °F /  -14.9 °C 29.99in /  1015.5hPa NW 5mph /  8km/h 11mph /  17.7km/h 65% 0.00in /  0mm 0 W/m2
03:54 14.7 °F /  -9.6 °C 5 °F /  -15 °C 30.00in /  1015.8hPa NW 6.2mph /  10km/h 12mph /  19.3km/h 65% 0.00in /  0mm 0 W/m2
03:59 14.6 °F /  -9.7 °C 5 °F /  -15 °C 30.00in /  1015.8hPa NW 5.6mph /  9km/h 14mph /  22.5km/h 65% 0.00in /  0mm 0 W/m2
04:00 14.6 °F /  -9.7 °C 5 °F /  -15 °C 29.99in /  1015.5hPa NW 5mph /  8km/h 14mph /  22.5km/h 65% 0.00in /  0mm 0 W/m2
04:09 14.6 °F /  -9.7 °C 4.7 °F /  -15.2 °C 29.99in /  1015.5hPa NW 7.4mph /  11.9km/h 14mph /  22.5km/h 64% 0.00in /  0mm 0 W/m2
04:14 14.6 °F /  -9.7 °C 4.6 °F /  -15.2 °C 29.99in /  1015.5hPa NW 11.7mph /  18.8km/h 19mph /  30.6km/h 63.8% 0.00in /  0mm 0 W/m2
04:19 14.6 °F /  -9.7 °C 4.3 °F /  -15.4 °C 29.99in /  1015.5hPa NW 14.7mph /  23.7km/h 25mph /  40.2km/h 63% 0.00in /  0mm 0 W/m2
04:24 14.6 °F /  -9.7 °C 4.3 °F /  -15.4 °C 30.00in /  1015.8hPa NW 12.3mph /  19.8km/h 27mph /  43.5km/h 63% 0.00in /  0mm 0 W/m2
04:29 14.5 °F /  -9.7 °C 4 °F /  -15.6 °C 30.00in /  1015.8hPa NW 13.6mph /  21.9km/h 27mph /  43.5km/h 62.5% 0.00in /  0mm 0 W/m2
04:34 14.4 °F /  -9.8 °C 4.2 °F /  -15.4 °C 30.00in /  1015.8hPa NW 11.1mph /  17.9km/h 27mph /  43.5km/h 63.3% 0.00in /  0mm 0 W/m2
04:39 14.3 °F /  -9.8 °C 4.7 °F /  -15.2 °C 30.00in /  1015.8hPa NW 10.9mph /  17.5km/h 27mph /  43.5km/h 65% 0.00in /  0mm 0 W/m2
04:44 14.2 °F /  -9.9 °C 4.9 °F /  -15.1 °C 29.99in /  1015.5hPa WNW 9.2mph /  14.8km/h 27mph /  43.5km/h 66% 0.00in /  0mm 0 W/m2
04:49 14.1 °F /  -9.9 °C 5.3 °F /  -14.8 °C 30.00in /  1015.8hPa NNW 5.9mph /  9.5km/h 27mph /  43.5km/h 67.5% 0.00in /  0mm 0 W/m2
04:54 14.1 °F /  -9.9 °C 5.8 °F /  -14.6 °C 30.00in /  1015.8hPa NW 9.3mph /  15km/h 27mph /  43.5km/h 69% 0.00in /  0mm 0 W/m2
04:59 13.8 °F /  -10.1 °C 4.6 °F /  -15.2 °C 29.99in /  1015.5hPa NW 11.6mph /  18.7km/h 27mph /  43.5km/h 66.2% 0.00in /  0mm 0 W/m2
05:04 13.5 °F /  -10.3 °C 3.6 °F /  -15.8 °C 30.00in /  1015.8hPa NW 10mph /  16.1km/h 27mph /  43.5km/h 64% 0.00in /  0mm 0 W/m2
05:09 13.2 °F /  -10.4 °C 2.4 °F /  -16.4 °C 29.99in /  1015.5hPa NW 9.5mph /  15.3km/h 22mph /  35.4km/h 61.4% 0.00in /  0mm 0 W/m2
05:14 12.9 °F /  -10.6 °C 1.9 °F /  -16.7 °C 29.99in /  1015.5hPa NW 8.5mph /  13.7km/h 22mph /  35.4km/h 60.5% 0.00in /  0mm 0 W/m2
05:19 12.7 °F /  -10.7 °C 1.5 °F /  -16.9 °C 29.99in /  1015.5hPa WNW 13.3mph /  21.4km/h 27mph /  43.5km/h 60.2% 0.00in /  0mm 0 W/m2
05:24 12.3 °F /  -10.9 °C 0.7 °F /  -17.4 °C 29.97in /  1014.8hPa WNW 12.4mph /  20km/h 27mph /  43.5km/h 59% 0.00in /  0mm 0 W/m2
05:29 12 °F /  -11.1 °C 0.3 °F /  -17.6 °C 29.99in /  1015.5hPa NW 12mph /  19.3km/h 27mph /  43.5km/h 58.8% 0.00in /  0mm 0 W/m2
05:34 11.8 °F /  -11.2 °C 0.8 °F /  -17.3 °C 30.00in /  1015.8hPa WNW 13.2mph /  21.2km/h 27mph /  43.5km/h 60.7% 0.00in /  0mm 0 W/m2
05:39 11.5 °F /  -11.4 °C 1 °F /  -17.2 °C 29.99in /  1015.5hPa WNW 11.8mph /  19km/h 24mph /  38.6km/h 62% 0.00in /  0mm 0 W/m2
05:44 11.2 °F /  -11.6 °C 0.7 °F /  -17.4 °C 30.00in /  1015.8hPa NW 12.5mph /  20.1km/h 24mph /  38.6km/h 61.9% 0.00in /  0mm 0 W/m2
05:49 11 °F /  -11.7 °C 0.2 °F /  -17.7 °C 30.00in /  1015.8hPa NW 9.8mph /  15.8km/h 24mph /  38.6km/h 61% 0.00in /  0mm 0 W/m2
05:54 10.7 °F /  -11.8 °C -0.2 °F /  -17.9 °C 30.00in /  1015.8hPa WNW 12.7mph /  20.4km/h 26mph /  41.8km/h 60.6% 0.00in /  0mm 0 W/m2
05:59 10.5 °F /  -11.9 °C -0.7 °F /  -18.2 °C 30.00in /  1015.8hPa WNW 11.1mph /  17.9km/h 27mph /  43.5km/h 60% 0.00in /  0mm 0 W/m2
06:04 10.3 °F /  -12.1 °C -0.6 °F /  -18.1 °C 30.00in /  1015.8hPa WNW 9.8mph /  15.8km/h 27mph /  43.5km/h 60.7% 0.00in /  0mm 0 W/m2
06:09 10.2 °F /  -12.1 °C -0.6 °F /  -18.1 °C 30.00in /  1015.8hPa WNW 7.5mph /  12.1km/h 15mph /  24.1km/h 61% 0.00in /  0mm 0 W/m2
06:14 10 °F /  -12.2 °C -0.8 °F /  -18.2 °C 30.00in /  1015.8hPa NW 10.3mph /  16.6km/h 20mph /  32.2km/h 61% 0.00in /  0mm 0 W/m2
06:19 9.7 °F /  -12.4 °C -1 °F /  -18.3 °C 30.00in /  1015.8hPa WNW 8.9mph /  14.3km/h 21mph /  33.8km/h 61% 0.00in /  0mm 0 W/m2
06:24 9.5 °F /  -12.5 °C -1.2 °F /  -18.4 °C 30.00in /  1015.8hPa WNW 5.1mph /  8.2km/h 21mph /  33.8km/h 61% 0.00in /  0mm 0 W/m2
06:29 9.3 °F /  -12.6 °C -1.4 °F /  -18.6 °C 30.00in /  1015.8hPa NW 9mph /  14.5km/h 22mph /  35.4km/h 61% 0.00in /  0mm 0 W/m2
06:34 9.1 °F /  -12.7 °C -1.6 °F /  -18.7 °C 30.00in /  1015.8hPa NW 6.3mph /  10.1km/h 22mph /  35.4km/h 61% 0.00in /  0mm 0 W/m2
06:39 8.9 °F /  -12.8 °C -1.8 °F /  -18.8 °C 30.01in /  1016.1hPa NW 5.5mph /  8.9km/h 16mph /  25.7km/h 61% 0.00in /  0mm 0 W/m2
06:44 8.7 °F /  -12.9 °C -1.9 °F /  -18.8 °C 30.01in /  1016.1hPa NW 6.3mph /  10.1km/h 18mph /  29km/h 61% 0.00in /  0mm 0 W/m2
06:49 8.6 °F /  -13 °C -2.3 °F /  -19.1 °C 30.01in /  1016.1hPa NW 8.5mph /  13.7km/h 20mph /  32.2km/h 60.4% 0.00in /  0mm 0 W/m2
06:54 8.5 °F /  -13.1 °C -2.5 °F /  -19.2 °C 30.00in /  1015.8hPa NW 5.5mph /  8.9km/h 20mph /  32.2km/h 60.2% 0.00in /  0mm 0 W/m2
06:59 8.4 °F /  -13.1 °C -2.4 °F /  -19.1 °C 30.00in /  1015.8hPa NW 6mph /  9.7km/h 20mph /  32.2km/h 60.7% 0.00in /  0mm 0 W/m2
07:04 8.3 °F /  -13.2 °C -2.7 °F /  -19.3 °C 30.00in /  1015.8hPa NW 6mph /  9.7km/h 20mph /  32.2km/h 60% 0.00in /  0mm 0 W/m2
07:09 8.3 °F /  -13.2 °C -2.7 °F /  -19.3 °C 30.01in /  1016.1hPa NNW 6.4mph /  10.3km/h 16mph /  25.7km/h 60% 0.00in /  0mm 7 W/m2
07:14 8.3 °F /  -13.2 °C -2.8 °F /  -19.3 °C 30.02in /  1016.5hPa North 4.2mph /  6.8km/h 16mph /  25.7km/h 60% 0.00in /  0mm 11 W/m2
07:19 8.2 °F /  -13.2 °C -2.8 °F /  -19.3 °C 30.02in /  1016.5hPa North 2.3mph /  3.7km/h 16mph /  25.7km/h 60% 0.00in /  0mm 18 W/m2
07:24 8.2 °F /  -13.2 °C -2.6 °F /  -19.2 °C 30.02in /  1016.5hPa NNW 3.8mph /  6.1km/h 16mph /  25.7km/h 60.6% 0.00in /  0mm 23 W/m2
07:29 8.3 °F /  -13.2 °C -2.4 °F /  -19.1 °C 30.02in /  1016.5hPa NNE 3.2mph /  5.1km/h 16mph /  25.7km/h 60.8% 0.00in /  0mm 26 W/m2
07:34 8.4 °F /  -13.1 °C -2.3 °F /  -19.1 °C 30.03in /  1016.8hPa North 3.7mph /  6km/h 16mph /  25.7km/h 61% 0.00in /  0mm 54 W/m2
07:39 8.6 °F /  -13 °C -2.1 °F /  -18.9 °C 30.03in /  1016.8hPa NNW 4.2mph /  6.8km/h 8mph /  12.9km/h 61% 0.00in /  0mm 51 W/m2
07:44 8.9 °F /  -12.8 °C -1.8 °F /  -18.8 °C 30.03in /  1016.8hPa WNW 4.5mph /  7.2km/h 11mph /  17.7km/h 61% 0.00in /  0mm 79 W/m2
07:49 9.2 °F /  -12.7 °C -1.8 °F /  -18.8 °C 30.03in /  1016.8hPa NW 4.4mph /  7.1km/h 15mph /  24.1km/h 60% 0.00in /  0mm 63 W/m2
07:54 9.4 °F /  -12.6 °C -1.7 °F /  -18.7 °C 30.03in /  1016.8hPa WNW 7mph /  11.3km/h 18mph /  29km/h 59.9% 0.00in /  0mm 56 W/m2
07:59 9.4 °F /  -12.6 °C -1.9 °F /  -18.8 °C 30.03in /  1016.8hPa NW 3.7mph /  6km/h 18mph /  29km/h 59.2% 0.00in /  0mm 56 W/m2
08:00 9.4 °F /  -12.6 °C -1.7 °F /  -18.7 °C 30.03in /  1016.8hPa WNW 4mph /  6.4km/h 18mph /  29km/h 60% 0.00in /  0mm 56 W/m2
08:09 9.3 °F /  -12.6 °C -1.8 °F /  -18.8 °C 30.03in /  1016.8hPa WNW 8mph /  12.9km/h 16mph /  25.7km/h 60% 0.00in /  0mm 74 W/m2
08:14 9.1 °F /  -12.7 °C -1.9 °F /  -18.8 °C 30.03in /  1016.8hPa WNW 5.7mph /  9.2km/h 16mph /  25.7km/h 60.2% 0.00in /  0mm 86 W/m2
08:19 9.1 °F /  -12.7 °C -1.6 °F /  -18.7 °C 30.02in /  1016.5hPa WNW 7.5mph /  12.1km/h 16mph /  25.7km/h 61% 0.00in /  0mm 83 W/m2
08:24 9.1 °F /  -12.7 °C -1.6 °F /  -18.7 °C 30.02in /  1016.5hPa NW 7.6mph /  12.2km/h 17mph /  27.4km/h 61% 0.00in /  0mm 72 W/m2
08:29 9 °F /  -12.8 °C -1.7 °F /  -18.7 °C 30.02in /  1016.5hPa NW 5.2mph /  8.4km/h 17mph /  27.4km/h 61% 0.00in /  0mm 62 W/m2
08:34 9 °F /  -12.8 °C -1.7 °F /  -18.7 °C 30.02in /  1016.5hPa NW 7.9mph /  12.7km/h 17mph /  27.4km/h 61% 0.00in /  0mm 53 W/m2
08:39 8.9 °F /  -12.8 °C -1.8 °F /  -18.8 °C 30.02in /  1016.5hPa WNW 10.4mph /  16.7km/h 22mph /  35.4km/h 61% 0.00in /  0mm 105 W/m2
08:44 8.9 °F /  -12.8 °C -1.8 °F /  -18.8 °C 30.01in /  1016.1hPa NW 6.7mph /  10.8km/h 22mph /  35.4km/h 61% 0.00in /  0mm 130 W/m2
08:49 9.2 °F /  -12.7 °C -1.4 °F /  -18.6 °C 30.01in /  1016.1hPa NW 8.1mph /  13km/h 22mph /  35.4km/h 61.2% 0.00in /  0mm 148 W/m2
08:54 9.5 °F /  -12.5 °C -1.2 °F /  -18.4 °C 30.02in /  1016.5hPa NW 6.2mph /  10km/h 22mph /  35.4km/h 60.9% 0.00in /  0mm 179 W/m2
08:59 10 °F /  -12.2 °C -1.1 °F /  -18.4 °C 30.02in /  1016.5hPa NW 7.3mph /  11.7km/h 22mph /  35.4km/h 60% 0.00in /  0mm 211 W/m2
09:04 10.4 °F /  -12 °C -1.2 °F /  -18.4 °C 30.02in /  1016.5hPa NW 10.3mph /  16.6km/h 22mph /  35.4km/h 58.8% 0.00in /  0mm 211 W/m2
09:09 10.6 °F /  -11.9 °C -1.2 °F /  -18.4 °C 30.01in /  1016.1hPa NW 7.4mph /  11.9km/h 21mph /  33.8km/h 58% 0.00in /  0mm 271 W/m2
09:14 11 °F /  -11.7 °C -1.1 °F /  -18.4 °C 30.01in /  1016.1hPa NW 8.5mph /  13.7km/h 21mph /  33.8km/h 57.6% 0.00in /  0mm 272 W/m2
09:19 11.1 °F /  -11.6 °C -1.4 °F /  -18.6 °C 30.01in /  1016.1hPa NW 8.3mph /  13.4km/h 21mph /  33.8km/h 56.3% 0.00in /  0mm 197 W/m2
09:24 11 °F /  -11.7 °C -1.6 °F /  -18.7 °C 30.01in /  1016.1hPa NW 7mph /  11.3km/h 21mph /  33.8km/h 56% 0.00in /  0mm 209 W/m2
09:29 11.1 °F /  -11.6 °C -1.4 °F /  -18.6 °C 30.01in /  1016.1hPa NW 6.9mph /  11.1km/h 21mph /  33.8km/h 56.2% 0.00in /  0mm 214 W/m2
09:34 11.4 °F /  -11.4 °C -1.2 °F /  -18.4 °C 30.01in /  1016.1hPa NNW 9mph /  14.5km/h 23mph /  37km/h 56% 0.00in /  0mm 183 W/m2
09:39 11.5 °F /  -11.4 °C -1.6 °F /  -18.7 °C 30.02in /  1016.5hPa NW 11.5mph /  18.5km/h 25mph /  40.2km/h 54.8% 0.00in /  0mm 248 W/m2
09:44 11.3 °F /  -11.5 °C -2.1 °F /  -18.9 °C 30.01in /  1016.1hPa NW 10.7mph /  17.2km/h 26mph /  41.8km/h 54% 0.00in /  0mm 211 W/m2
09:49 11.2 °F /  -11.6 °C -2 °F /  -18.9 °C 30.02in /  1016.5hPa NW 6.3mph /  10.1km/h 26mph /  41.8km/h 54.4% 0.00in /  0mm 174 W/m2
09:54 11.3 °F /  -11.5 °C -1.4 °F /  -18.6 °C 30.02in /  1016.5hPa NW 7.5mph /  12.1km/h 26mph /  41.8km/h 56.1% 0.00in /  0mm 237 W/m2
09:59 11.5 °F /  -11.4 °C -1.6 °F /  -18.7 °C 30.02in /  1016.5hPa NW 10.5mph /  16.9km/h 26mph /  41.8km/h 54.8% 0.00in /  0mm 237 W/m2
10:04 11.4 °F /  -11.4 °C -2 °F /  -18.9 °C 30.02in /  1016.5hPa NW 9.5mph /  15.3km/h 26mph /  41.8km/h 54% 0.00in /  0mm 169 W/m2
10:09 11.3 °F /  -11.5 °C -2 °F /  -18.9 °C 30.02in /  1016.5hPa NW 7.6mph /  12.2km/h 19mph /  30.6km/h 54.3% 0.00in /  0mm 230 W/m2
10:14 11.4 °F /  -11.4 °C -1.7 °F /  -18.7 °C 30.02in /  1016.5hPa NW 7.6mph /  12.2km/h 19mph /  30.6km/h 54.8% 0.00in /  0mm 279 W/m2
10:19 11.7 °F /  -11.3 °C -1.7 °F /  -18.7 °C 30.01in /  1016.1hPa NW 10.2mph /  16.4km/h 20mph /  32.2km/h 54.1% 0.00in /  0mm 313 W/m2
10:24 12 °F /  -11.1 °C -1.5 °F /  -18.6 °C 30.02in /  1016.5hPa NW 7.1mph /  11.4km/h 20mph /  32.2km/h 54% 0.00in /  0mm 279 W/m2
10:29 12.3 °F /  -10.9 °C -1.1 °F /  -18.4 °C 30.02in /  1016.5hPa NW 8.8mph /  14.2km/h 20mph /  32.2km/h 54% 0.00in /  0mm 353 W/m2
10:34 12.6 °F /  -10.8 °C -1.4 °F /  -18.6 °C 30.02in /  1016.5hPa NW 10.1mph /  16.3km/h 21mph /  33.8km/h 52.8% 0.00in /  0mm 408 W/m2
10:39 12.8 °F /  -10.7 °C -1.1 °F /  -18.4 °C 30.01in /  1016.1hPa NW 6.7mph /  10.8km/h 21mph /  33.8km/h 53% 0.00in /  0mm 420 W/m2
10:44 13.1 °F /  -10.5 °C -1.1 °F /  -18.4 °C 30.02in /  1016.5hPa NW 10.5mph /  16.9km/h 21mph /  33.8km/h 52.4% 0.00in /  0mm 487 W/m2
10:49 13.2 °F /  -10.4 °C -1.1 °F /  -18.4 °C 30.02in /  1016.5hPa NW 8.2mph /  13.2km/h 21mph /  33.8km/h 52% 0.00in /  0mm 497 W/m2
10:54 13.7 °F /  -10.2 °C -0.5 °F /  -18.1 °C 30.01in /  1016.1hPa NW 5.3mph /  8.5km/h 21mph /  33.8km/h 52.3% 0.00in /  0mm 548 W/m2
10:59 14.6 °F /  -9.7 °C 0.1 °F /  -17.7 °C 30.01in /  1016.1hPa NW 7.8mph /  12.6km/h 21mph /  33.8km/h 51.9% 0.00in /  0mm 555 W/m2
11:04 15 °F /  -9.4 °C -0.1 °F /  -17.8 °C 30.01in /  1016.1hPa NW 8.1mph /  13km/h 21mph /  33.8km/h 50.3% 0.00in /  0mm 550 W/m2
11:09 15.3 °F /  -9.3 °C 0.6 °F /  -17.4 °C 30.01in /  1016.1hPa NW 8.1mph /  13km/h 22mph /  35.4km/h 51.3% 0.00in /  0mm 522 W/m2
11:14 15.3 °F /  -9.3 °C -0.5 °F /  -18.1 °C 30.01in /  1016.1hPa NW 12.2mph /  19.6km/h 26mph /  41.8km/h 48.9% 0.00in /  0mm 436 W/m2
11:19 14.6 °F /  -9.7 °C -1.1 °F /  -18.4 °C 30.00in /  1015.8hPa NW 10.7mph /  17.2km/h 26mph /  41.8km/h 49% 0.00in /  0mm 243 W/m2
11:24 14.2 °F /  -9.9 °C -1 °F /  -18.3 °C 30.00in /  1015.8hPa NW 8.9mph /  14.3km/h 26mph /  41.8km/h 49.9% 0.00in /  0mm 306 W/m2
11:29 14.1 °F /  -9.9 °C -1 °F /  -18.3 °C 30.00in /  1015.8hPa NW 8.8mph /  14.2km/h 26mph /  41.8km/h 50.4% 0.00in /  0mm 306 W/m2
11:34 14.2 °F /  -9.9 °C -0.8 °F /  -18.2 °C 30.00in /  1015.8hPa NW 8mph /  12.9km/h 26mph /  41.8km/h 50.7% 0.00in /  0mm 369 W/m2
11:39 14.2 °F /  -9.9 °C -0.7 °F /  -18.2 °C 30.00in /  1015.8hPa NNW 6.9mph /  11.1km/h 26mph /  41.8km/h 50.7% 0.00in /  0mm 380 W/m2
11:44 14.4 °F /  -9.8 °C -0.5 °F /  -18.1 °C 30.00in /  1015.8hPa NW 7.8mph /  12.6km/h 26mph /  41.8km/h 50.7% 0.00in /  0mm 376 W/m2
11:49 14.7 °F /  -9.6 °C -0.5 °F /  -18.1 °C 30.00in /  1015.8hPa NW 10.8mph /  17.4km/h 26mph /  41.8km/h 50.3% 0.00in /  0mm 213 W/m2
11:54 14.7 °F /  -9.6 °C -0.5 °F /  -18.1 °C 29.99in /  1015.5hPa NNW 9.2mph /  14.8km/h 26mph /  41.8km/h 50% 0.00in /  0mm 308 W/m2
11:59 14.9 °F /  -9.5 °C -0.4 °F /  -18 °C 29.99in /  1015.5hPa NW 6.8mph /  10.9km/h 26mph /  41.8km/h 50% 0.00in /  0mm 485 W/m2
12:04 15.1 °F /  -9.4 °C -0.2 °F /  -17.9 °C 29.98in /  1015.1hPa NNW 6mph /  9.7km/h 26mph /  41.8km/h 50% 0.00in /  0mm 485 W/m2
12:09 15.2 °F /  -9.3 °C -0.2 °F /  -17.9 °C 29.99in /  1015.5hPa NW 11.1mph /  17.9km/h 30mph /  48.3km/h 49.8% 0.00in /  0mm 137 W/m2
12:14 15 °F /  -9.4 °C -0.5 °F /  -18.1 °C 29.99in /  1015.5hPa NW 7.1mph /  11.4km/h 30mph /  48.3km/h 49.5% 0.00in /  0mm 197 W/m2
12:19 15.2 °F /  -9.3 °C 0.3 °F /  -17.6 °C 29.99in /  1015.5hPa NW 8.9mph /  14.3km/h 30mph /  48.3km/h 50.9% 0.00in /  0mm 144 W/m2
12:24 15.4 °F /  -9.2 °C 0.4 °F /  -17.6 °C 30.00in /  1015.8hPa NW 7.6mph /  12.2km/h 30mph /  48.3km/h 50.7% 0.00in /  0mm 162 W/m2
12:29 15.5 °F /  -9.2 °C 0.4 °F /  -17.6 °C 29.99in /  1015.5hPa NW 11.1mph /  17.9km/h 30mph /  48.3km/h 50.4% 0.00in /  0mm 160 W/m2
12:34 15.5 °F /  -9.2 °C 0 °F /  -17.8 °C 29.99in /  1015.5hPa NW 13.1mph /  21.1km/h 30mph /  48.3km/h 49.4% 0.00in /  0mm 209 W/m2
12:39 15.4 °F /  -9.2 °C -0.3 °F /  -17.9 °C 29.99in /  1015.5hPa NW 11.6mph /  18.7km/h 28mph /  45.1km/h 49% 0.00in /  0mm 178 W/m2
12:44 15.5 °F /  -9.2 °C 0.2 °F /  -17.7 °C 29.98in /  1015.1hPa WNW 7.4mph /  11.9km/h 28mph /  45.1km/h 49.9% 0.00in /  0mm 137 W/m2
12:49 15.7 °F /  -9.1 °C 0.4 °F /  -17.6 °C 29.99in /  1015.5hPa NW 9mph /  14.5km/h 28mph /  45.1km/h 50% 0.00in /  0mm 137 W/m2
12:54 16 °F /  -8.9 °C 0.6 °F /  -17.4 °C 29.99in /  1015.5hPa NW 9.7mph /  15.6km/h 28mph /  45.1km/h 49.9% 0.00in /  0mm 311 W/m2
12:59 16.2 °F /  -8.8 °C 0.8 °F /  -17.3 °C 29.99in /  1015.5hPa WNW 8.3mph /  13.4km/h 28mph /  45.1km/h 50% 0.00in /  0mm 311 W/m2
13:04 16.5 °F /  -8.6 °C 1.1 °F /  -17.2 °C 29.99in /  1015.5hPa NW 8.7mph /  14km/h 28mph /  45.1km/h 50% 0.00in /  0mm 230 W/m2
13:09 16.8 °F /  -8.4 °C 1.4 °F /  -17 °C 29.99in /  1015.5hPa NNW 7.2mph /  11.6km/h 20mph /  32.2km/h 50% 0.00in /  0mm 155 W/m2
13:14 17 °F /  -8.3 °C 1.3 °F /  -17.1 °C 29.99in /  1015.5hPa NNW 10.3mph /  16.6km/h 21mph /  33.8km/h 49.3% 0.00in /  0mm 176 W/m2
13:19 17.1 °F /  -8.3 °C 1.5 °F /  -16.9 °C 29.99in /  1015.5hPa NW 6.9mph /  11.1km/h 21mph /  33.8km/h 49.7% 0.00in /  0mm 221 W/m2
13:24 17.5 °F /  -8.1 °C 1.9 °F /  -16.7 °C 29.98in /  1015.1hPa NW 9.4mph /  15.1km/h 24mph /  38.6km/h 49.9% 0.00in /  0mm 295 W/m2
13:29 17.7 °F /  -7.9 °C 1.8 °F /  -16.8 °C 29.99in /  1015.5hPa NW 9.2mph /  14.8km/h 24mph /  38.6km/h 48.8% 0.00in /  0mm 345 W/m2
13:34 17.9 °F /  -7.8 °C 1.7 °F /  -16.8 °C 29.99in /  1015.5hPa NW 10mph /  16.1km/h 24mph /  38.6km/h 48.4% 0.00in /  0mm 345 W/m2
13:39 18 °F /  -7.8 °C 1.7 °F /  -16.8 °C 29.98in /  1015.1hPa NW 9.1mph /  14.6km/h 23mph /  37km/h 48.3% 0.00in /  0mm 338 W/m2
13:44 18.1 °F /  -7.7 °C 2.1 °F /  -16.6 °C 29.98in /  1015.1hPa NW 9.8mph /  15.8km/h 27mph /  43.5km/h 48.7% 0.00in /  0mm 527 W/m2
13:49 18.2 °F /  -7.7 °C 1.8 °F /  -16.8 °C 29.98in /  1015.1hPa NNW 8.7mph /  14km/h 27mph /  43.5km/h 48% 0.00in /  0mm 526 W/m2
13:54 18.2 °F /  -7.7 °C 1.8 °F /  -16.8 °C 29.98in /  1015.1hPa NW 7.7mph /  12.4km/h 27mph /  43.5km/h 48% 0.00in /  0mm 306 W/m2
13:59 18.3 °F /  -7.6 °C 2.2 °F /  -16.6 °C 29.99in /  1015.5hPa NW 9.2mph /  14.8km/h 27mph /  43.5km/h 48.5% 0.00in /  0mm 114 W/m2
14:04 18.4 °F /  -7.6 °C 2 °F /  -16.7 °C 29.99in /  1015.5hPa NW 7.3mph /  11.7km/h 27mph /  43.5km/h 48% 0.00in /  0mm 251 W/m2
14:09 18.7 °F /  -7.4 °C 2.2 °F /  -16.6 °C 29.99in /  1015.5hPa NW 7.9mph /  12.7km/h 19mph /  30.6km/h 48% 0.00in /  0mm 390 W/m2
14:14 18.9 °F /  -7.3 °C 2.4 °F /  -16.4 °C 29.99in /  1015.5hPa NW 9mph /  14.5km/h 19mph /  30.6km/h 48% 0.00in /  0mm 390 W/m2
14:19 19 °F /  -7.2 °C 2.4 °F /  -16.4 °C 29.99in /  1015.5hPa NW 8.3mph /  13.4km/h 19mph /  30.6km/h 47.6% 0.00in /  0mm 374 W/m2
14:24 19 °F /  -7.2 °C 2.4 °F /  -16.4 °C 30.00in /  1015.8hPa NW 5.9mph /  9.5km/h 19mph /  30.6km/h 47.7% 0.00in /  0mm 116 W/m2
14:29 19.1 °F /  -7.2 °C 2.8 °F /  -16.2 °C 30.00in /  1015.8hPa NNW 7.8mph /  12.6km/h 19mph /  30.6km/h 48.2% 0.00in /  0mm 346 W/m2
14:34 19.3 °F /  -7.1 °C 2.8 °F /  -16.2 °C 30.00in /  1015.8hPa NNW 8.6mph /  13.8km/h 19mph /  30.6km/h 48% 0.00in /  0mm 322 W/m2
14:39 19.3 °F /  -7.1 °C 2.8 °F /  -16.2 °C 30.00in /  1015.8hPa NW 7.8mph /  12.6km/h 18mph /  29km/h 48% 0.00in /  0mm 142 W/m2
14:44 19.2 °F /  -7.1 °C 2.8 °F /  -16.2 °C 30.01in /  1016.1hPa NW 8.6mph /  13.8km/h 18mph /  29km/h 48% 0.00in /  0mm 142 W/m2
14:49 19.2 °F /  -7.1 °C 2.9 °F /  -16.2 °C 30.01in /  1016.1hPa NW 5.8mph /  9.3km/h 18mph /  29km/h 48.4% 0.00in /  0mm 100 W/m2
14:54 19.4 °F /  -7 °C 3.7 °F /  -15.7 °C 30.01in /  1016.1hPa NNW 5.1mph /  8.2km/h 18mph /  29km/h 49.8% 0.00in /  0mm 227 W/m2
14:59 19.6 °F /  -6.9 °C 3.6 °F /  -15.8 °C 30.01in /  1016.1hPa NNW 5.3mph /  8.5km/h 18mph /  29km/h 49% 0.00in /  0mm 281 W/m2
15:04 19.7 °F /  -6.8 °C 3.7 °F /  -15.7 °C 30.01in /  1016.1hPa NW 4.3mph /  6.9km/h 18mph /  29km/h 49% 0.00in /  0mm 35 W/m2
15:09 19.8 °F /  -6.8 °C 3.7 °F /  -15.7 °C 30.01in /  1016.1hPa NNW 4.2mph /  6.8km/h 13mph /  20.9km/h 49% 0.00in /  0mm 33 W/m2
15:14 19.9 °F /  -6.7 °C 3.8 °F /  -15.7 °C 30.02in /  1016.5hPa NNW 6.3mph /  10.1km/h 13mph /  20.9km/h 49% 0.00in /  0mm 30 W/m2
15:19 19.9 °F /  -6.7 °C 3.8 °F /  -15.7 °C 30.02in /  1016.5hPa NW 9.7mph /  15.6km/h 21mph /  33.8km/h 49% 0.00in /  0mm 30 W/m2
15:24 19.9 °F /  -6.7 °C 3.8 °F /  -15.7 °C 30.02in /  1016.5hPa NNW 6.6mph /  10.6km/h 21mph /  33.8km/h 49% 0.00in /  0mm 30 W/m2
15:29 19.8 °F /  -6.8 °C 3.8 °F /  -15.7 °C 30.02in /  1016.5hPa NNW 4.6mph /  7.4km/h 21mph /  33.8km/h 49% 0.00in /  0mm 28 W/m2
15:34 19.9 °F /  -6.7 °C 4 °F /  -15.6 °C 30.02in /  1016.5hPa NW 4.6mph /  7.4km/h 21mph /  33.8km/h 49.4% 0.00in /  0mm 26 W/m2
15:39 20 °F /  -6.7 °C 4.4 °F /  -15.3 °C 30.02in /  1016.5hPa NNW 6.6mph /  10.6km/h 16mph /  25.7km/h 50% 0.00in /  0mm 26 W/m2
15:44 19.9 °F /  -6.7 °C 4.2 °F /  -15.4 °C 30.03in /  1016.8hPa NW 10.3mph /  16.6km/h 22mph /  35.4km/h 49.8% 0.00in /  0mm 25 W/m2
15:49 19.9 °F /  -6.7 °C 3.8 °F /  -15.7 °C 30.03in /  1016.8hPa NW 9.9mph /  15.9km/h 22mph /  35.4km/h 49% 0.00in /  0mm 25 W/m2
15:54 19.8 °F /  -6.8 °C 4 °F /  -15.6 °C 30.03in /  1016.8hPa NW 6.4mph /  10.3km/h 22mph /  35.4km/h 49.6% 0.00in /  0mm 23 W/m2
15:59 19.7 °F /  -6.8 °C 4.2 °F /  -15.4 °C 30.04in /  1017.2hPa NW 8.9mph /  14.3km/h 22mph /  35.4km/h 50.2% 0.00in /  0mm 21 W/m2
16:00 19.7 °F /  -6.8 °C 4.1 °F /  -15.5 °C 30.03in /  1016.8hPa NW 5mph /  8km/h 22mph /  35.4km/h 50% 0.00in /  0mm 21 W/m2
16:09 19.5 °F /  -6.9 °C 4 °F /  -15.6 °C 30.04in /  1017.2hPa NNW 6.3mph /  10.1km/h 16mph /  25.7km/h 50% 0.00in /  0mm 19 W/m2
16:14 19.5 °F /  -6.9 °C 4.3 °F /  -15.4 °C 30.04in /  1017.2hPa NW 8.1mph /  13km/h 17mph /  27.4km/h 51% 0.00in /  0mm 19 W/m2
16:19 19.5 °F /  -6.9 °C 4.3 °F /  -15.4 °C 30.05in /  1017.5hPa NW 9.4mph /  15.1km/h 18mph /  29km/h 51% 0.00in /  0mm 18 W/m2
16:24 19.4 °F /  -7 °C 5 °F /  -15 °C 30.05in /  1017.5hPa NW 8.2mph /  13.2km/h 19mph /  30.6km/h 52.9% 0.00in /  0mm 18 W/m2
16:29 19.3 °F /  -7.1 °C 4.5 °F /  -15.3 °C 30.05in /  1017.5hPa NW 7.8mph /  12.6km/h 19mph /  30.6km/h 51.7% 0.00in /  0mm 16 W/m2
16:34 19.2 °F /  -7.1 °C 4.5 °F /  -15.3 °C 30.05in /  1017.5hPa NW 7.1mph /  11.4km/h 19mph /  30.6km/h 52% 0.00in /  0mm 14 W/m2
16:39 19.1 °F /  -7.2 °C 4.4 °F /  -15.3 °C 30.05in /  1017.5hPa NW 9.2mph /  14.8km/h 25mph /  40.2km/h 52% 0.00in /  0mm 12 W/m2
16:44 19.1 °F /  -7.2 °C 4.5 °F /  -15.3 °C 30.06in /  1017.8hPa NW 7.8mph /  12.6km/h 25mph /  40.2km/h 52.4% 0.00in /  0mm 11 W/m2
16:49 19 °F /  -7.2 °C 4.7 °F /  -15.2 °C 30.06in /  1017.8hPa NW 6.2mph /  10km/h 25mph /  40.2km/h 53% 0.00in /  0mm 9 W/m2
16:54 18.9 °F /  -7.3 °C 4.9 °F /  -15.1 °C 30.06in /  1017.8hPa NW 6.8mph /  10.9km/h 25mph /  40.2km/h 53.5% 0.00in /  0mm 7 W/m2
16:59 18.9 °F /  -7.3 °C 4.9 °F /  -15.1 °C 30.06in /  1017.8hPa NW 6.6mph /  10.6km/h 25mph /  40.2km/h 53.6% 0.00in /  0mm 5 W/m2
17:04 18.9 °F /  -7.3 °C 5 °F /  -15 °C 30.06in /  1017.8hPa NW 5.2mph /  8.4km/h 25mph /  40.2km/h 54% 0.00in /  0mm 0 W/m2
17:09 18.8 °F /  -7.3 °C 4.9 °F /  -15.1 °C 30.07in /  1018.2hPa NNW 4.4mph /  7.1km/h 13mph /  20.9km/h 54% 0.00in /  0mm 0 W/m2
17:14 18.7 °F /  -7.4 °C 4.9 °F /  -15.1 °C 30.07in /  1018.2hPa NNW 4.6mph /  7.4km/h 13mph /  20.9km/h 54.2% 0.00in /  0mm 0 W/m2
17:19 18.6 °F /  -7.4 °C 5.1 °F /  -14.9 °C 30.07in /  1018.2hPa NNW 3.3mph /  5.3km/h 13mph /  20.9km/h 55% 0.00in /  0mm 0 W/m2
17:24 18.6 °F /  -7.4 °C 5.1 °F /  -14.9 °C 30.08in /  1018.5hPa NW 5.3mph /  8.5km/h 13mph /  20.9km/h 55% 0.00in /  0mm 0 W/m2
17:29 18.5 °F /  -7.5 °C 5.4 °F /  -14.8 °C 30.08in /  1018.5hPa NW 7.5mph /  12.1km/h 19mph /  30.6km/h 55.8% 0.00in /  0mm 0 W/m2
17:34 18.5 °F /  -7.5 °C 5.4 °F /  -14.8 °C 30.08in /  1018.5hPa NW 7.2mph /  11.6km/h 19mph /  30.6km/h 56% 0.00in /  0mm 0 W/m2
17:39 18.4 °F /  -7.6 °C 5.4 °F /  -14.8 °C 30.08in /  1018.5hPa NW 5.2mph /  8.4km/h 19mph /  30.6km/h 56% 0.00in /  0mm 0 W/m2
17:44 18.4 °F /  -7.6 °C 5.5 °F /  -14.7 °C 30.08in /  1018.5hPa NW 5.4mph /  8.7km/h 19mph /  30.6km/h 56.6% 0.00in /  0mm 0 W/m2
17:49 18.3 °F /  -7.6 °C 5.6 °F /  -14.7 °C 30.08in /  1018.5hPa NW 4.6mph /  7.4km/h 19mph /  30.6km/h 57% 0.00in /  0mm 0 W/m2
17:54 18.2 °F /  -7.7 °C 5.5 °F /  -14.7 °C 30.09in /  1018.8hPa NNW 5.5mph /  8.9km/h 19mph /  30.6km/h 57% 0.00in /  0mm 0 W/m2
17:59 18.2 °F /  -7.7 °C 5.5 °F /  -14.7 °C 30.09in /  1018.8hPa NW 5.9mph /  9.5km/h 19mph /  30.6km/h 57% 0.00in /  0mm 0 W/m2
18:04 18.1 °F /  -7.7 °C 5.5 °F /  -14.7 °C 30.09in /  1018.8hPa NW 5.4mph /  8.7km/h 19mph /  30.6km/h 57% 0.00in /  0mm 0 W/m2
18:09 18.1 °F /  -7.7 °C 5.7 °F /  -14.6 °C 30.10in /  1019.2hPa NW 6.3mph /  10.1km/h 16mph /  25.7km/h 57.6% 0.00in /  0mm 0 W/m2
18:14 18.1 °F /  -7.7 °C 5.5 °F /  -14.7 °C 30.10in /  1019.2hPa NW 2.8mph /  4.5km/h 16mph /  25.7km/h 57.3% 0.00in /  0mm 0 W/m2
18:19 18 °F /  -7.8 °C 5.7 °F /  -14.6 °C 30.10in /  1019.2hPa NNW 4.1mph /  6.6km/h 16mph /  25.7km/h 58% 0.00in /  0mm 0 W/m2
18:24 17.9 °F /  -7.8 °C 5.7 °F /  -14.6 °C 30.10in /  1019.2hPa NW 3.9mph /  6.3km/h 16mph /  25.7km/h 58% 0.00in /  0mm 0 W/m2
18:29 17.9 °F /  -7.8 °C 5.6 °F /  -14.7 °C 30.10in /  1019.2hPa NNW 3mph /  4.8km/h 16mph /  25.7km/h 58% 0.00in /  0mm 0 W/m2
18:34 17.8 °F /  -7.9 °C 5.5 °F /  -14.7 °C 30.10in /  1019.2hPa NW 4.8mph /  7.7km/h 16mph /  25.7km/h 58% 0.00in /  0mm 0 W/m2
18:39 17.7 °F /  -7.9 °C 5.5 °F /  -14.7 °C 30.11in /  1019.5hPa NW 5.2mph /  8.4km/h 13mph /  20.9km/h 58% 0.00in /  0mm 0 W/m2
18:44 17.7 °F /  -7.9 °C 5.7 °F /  -14.6 °C 30.11in /  1019.5hPa NNW 2.5mph /  4km/h 13mph /  20.9km/h 58.8% 0.00in /  0mm 0 W/m2
18:49 17.6 °F /  -8 °C 5.8 °F /  -14.6 °C 30.11in /  1019.5hPa NW 4.9mph /  7.9km/h 13mph /  20.9km/h 59% 0.00in /  0mm 0 W/m2
18:54 17.6 °F /  -8 °C 5.7 °F /  -14.6 °C 30.11in /  1019.5hPa NNW 4.4mph /  7.1km/h 13mph /  20.9km/h 59% 0.00in /  0mm 0 W/m2
18:59 17.5 °F /  -8.1 °C 5.6 °F /  -14.7 °C 30.11in /  1019.5hPa NW 5.4mph /  8.7km/h 14mph /  22.5km/h 59% 0.00in /  0mm 0 W/m2
19:04 17.5 °F /  -8.1 °C 5.6 °F /  -14.7 °C 30.11in /  1019.5hPa NNW 4.5mph /  7.2km/h 14mph /  22.5km/h 59% 0.00in /  0mm 0 W/m2
19:09 17.4 °F /  -8.1 °C 5.8 °F /  -14.6 °C 30.12in /  1019.9hPa NNW 3.9mph /  6.3km/h 12mph /  19.3km/h 59.7% 0.00in /  0mm 0 W/m2
19:14 17.3 °F /  -8.2 °C 5.8 °F /  -14.6 °C 30.12in /  1019.9hPa NW 3.4mph /  5.5km/h 12mph /  19.3km/h 60% 0.00in /  0mm 0 W/m2
19:19 17.3 °F /  -8.2 °C 5.8 °F /  -14.6 °C 30.12in /  1019.9hPa NW 4mph /  6.4km/h 12mph /  19.3km/h 60% 0.00in /  0mm 0 W/m2
19:24 17.3 °F /  -8.2 °C 5.8 °F /  -14.6 °C 30.12in /  1019.9hPa NW 3.6mph /  5.8km/h 12mph /  19.3km/h 60% 0.00in /  0mm 0 W/m2
19:29 17.2 °F /  -8.2 °C 5.7 °F /  -14.6 °C 30.12in /  1019.9hPa NW 3.5mph /  5.6km/h 14mph /  22.5km/h 60% 0.00in /  0mm 0 W/m2
19:34 17.1 °F /  -8.3 °C 5.6 °F /  -14.7 °C 30.12in /  1019.9hPa NW 4.4mph /  7.1km/h 14mph /  22.5km/h 60% 0.00in /  0mm 0 W/m2
19:39 17.1 °F /  -8.3 °C 5.6 °F /  -14.7 °C 30.12in /  1019.9hPa NW 4.2mph /  6.8km/h 11mph /  17.7km/h 60% 0.00in /  0mm 0 W/m2
19:44 17.1 °F /  -8.3 °C 5.6 °F /  -14.7 °C 30.13in /  1020.2hPa NW 3.3mph /  5.3km/h 11mph /  17.7km/h 60% 0.00in /  0mm 0 W/m2
19:49 17.1 °F /  -8.3 °C 5.6 °F /  -14.7 °C 30.13in /  1020.2hPa NNW 3.3mph /  5.3km/h 11mph /  17.7km/h 60% 0.00in /  0mm 0 W/m2
19:54 17.1 °F /  -8.3 °C 5.6 °F /  -14.7 °C 30.13in /  1020.2hPa NW 2.8mph /  4.5km/h 11mph /  17.7km/h 60% 0.00in /  0mm 0 W/m2
19:59 17 °F /  -8.3 °C 5.7 °F /  -14.6 °C 30.13in /  1020.2hPa NW 2.3mph /  3.7km/h 11mph /  17.7km/h 60.4% 0.00in /  0mm 0 W/m2
20:00 17 °F /  -8.3 °C 5.5 °F /  -14.7 °C 30.13in /  1020.2hPa NW 5mph /  8km/h 11mph /  17.7km/h 60% 0.00in /  0mm 0 W/m2
20:09 16.9 °F /  -8.4 °C 5.8 °F /  -14.6 °C 30.13in /  1020.2hPa NNW 5.2mph /  8.4km/h 12mph /  19.3km/h 61% 0.00in /  0mm 0 W/m2
20:14 16.9 °F /  -8.4 °C 5.8 °F /  -14.6 °C 30.13in /  1020.2hPa NW 5.6mph /  9km/h 13mph /  20.9km/h 61% 0.00in /  0mm 0 W/m2
20:19 16.9 °F /  -8.4 °C 5.8 °F /  -14.6 °C 30.13in /  1020.2hPa NW 4.7mph /  7.6km/h 13mph /  20.9km/h 61% 0.00in /  0mm 0 W/m2
20:24 16.9 °F /  -8.4 °C 5.8 °F /  -14.6 °C 30.14in /  1020.5hPa NNW 3.6mph /  5.8km/h 13mph /  20.9km/h 61% 0.00in /  0mm 0 W/m2
20:29 16.9 °F /  -8.4 °C 5.8 °F /  -14.6 °C 30.13in /  1020.2hPa NW 5.2mph /  8.4km/h 13mph /  20.9km/h 61% 0.00in /  0mm 0 W/m2
20:34 16.9 °F /  -8.4 °C 5.8 °F /  -14.6 °C 30.14in /  1020.5hPa NW 4.4mph /  7.1km/h 13mph /  20.9km/h 61% 0.00in /  0mm 0 W/m2
20:39 16.8 °F /  -8.4 °C 5.7 °F /  -14.6 °C 30.14in /  1020.5hPa NW 4mph /  6.4km/h 10mph /  16.1km/h 61% 0.00in /  0mm 0 W/m2
20:44 16.8 °F /  -8.4 °C 5.7 °F /  -14.6 °C 30.14in /  1020.5hPa NNW 3.9mph /  6.3km/h 12mph /  19.3km/h 61% 0.00in /  0mm 0 W/m2
20:49 16.8 °F /  -8.4 °C 5.7 °F /  -14.6 °C 30.15in /  1020.9hPa NNW 4.5mph /  7.2km/h 12mph /  19.3km/h 61% 0.00in /  0mm 0 W/m2
20:54 16.7 °F /  -8.5 °C 5.6 °F /  -14.7 °C 30.14in /  1020.5hPa NW 4.2mph /  6.8km/h 16mph /  25.7km/h 61% 0.00in /  0mm 0 W/m2
20:59 16.7 °F /  -8.5 °C 5.6 °F /  -14.7 °C 30.15in /  1020.9hPa NW 4.7mph /  7.6km/h 16mph /  25.7km/h 61% 0.00in /  0mm 0 W/m2
21:04 16.6 °F /  -8.6 °C 5.5 °F /  -14.7 °C 30.15in /  1020.9hPa NW 4.6mph /  7.4km/h 16mph /  25.7km/h 61% 0.00in /  0mm 0 W/m2
21:09 16.6 °F /  -8.6 °C 5.5 °F /  -14.7 °C 30.15in /  1020.9hPa NW 4mph /  6.4km/h 10mph /  16.1km/h 61% 0.00in /  0mm 0 W/m2
21:14 16.5 °F /  -8.6 °C 5.4 °F /  -14.8 °C 30.15in /  1020.9hPa NW 1.9mph /  3.1km/h 10mph /  16.1km/h 61% 0.00in /  0mm 0 W/m2
21:19 16.4 °F /  -8.7 °C 5.4 °F /  -14.8 °C 30.15in /  1020.9hPa NW 3.8mph /  6.1km/h 12mph /  19.3km/h 61% 0.00in /  0mm 0 W/m2
21:24 16.4 °F /  -8.7 °C 5.3 °F /  -14.8 °C 30.15in /  1020.9hPa NNW 3mph /  4.8km/h 12mph /  19.3km/h 61% 0.00in /  0mm 0 W/m2
21:29 16.3 °F /  -8.7 °C 5.4 °F /  -14.8 °C 30.15in /  1020.9hPa NW 2.6mph /  4.2km/h 12mph /  19.3km/h 61.5% 0.00in /  0mm 0 W/m2
21:34 16.3 °F /  -8.7 °C 5.5 °F /  -14.7 °C 30.15in /  1020.9hPa NNW 3.6mph /  5.8km/h 12mph /  19.3km/h 61.7% 0.00in /  0mm 0 W/m2
21:39 16.2 °F /  -8.8 °C 5.3 °F /  -14.8 °C 30.16in /  1021.2hPa NNW 3.1mph /  5km/h 12mph /  19.3km/h 61.5% 0.00in /  0mm 0 W/m2
21:44 16.2 °F /  -8.8 °C 5.4 °F /  -14.8 °C 30.16in /  1021.2hPa NNW 2.9mph /  4.7km/h 12mph /  19.3km/h 61.9% 0.00in /  0mm 0 W/m2
21:49 16.1 °F /  -8.8 °C 5.4 °F /  -14.8 °C 30.16in /  1021.2hPa NNW 3.5mph /  5.6km/h 12mph /  19.3km/h 62% 0.00in /  0mm 0 W/m2
21:54 16.1 °F /  -8.8 °C 5.4 °F /  -14.8 °C 30.16in /  1021.2hPa NNW 4.8mph /  7.7km/h 13mph /  20.9km/h 62% 0.00in /  0mm 0 W/m2
21:59 16.1 °F /  -8.8 °C 5.4 °F /  -14.8 °C 30.16in /  1021.2hPa NW 2.9mph /  4.7km/h 13mph /  20.9km/h 62% 0.00in /  0mm 0 W/m2
22:04 16 °F /  -8.9 °C 5.3 °F /  -14.8 °C 30.16in /  1021.2hPa NNW 3.1mph /  5km/h 13mph /  20.9km/h 62% 0.00in /  0mm 0 W/m2
22:09 15.9 °F /  -8.9 °C 5.2 °F /  -14.9 °C 30.16in /  1021.2hPa NNW 3mph /  4.8km/h 8mph /  12.9km/h 62% 0.00in /  0mm 0 W/m2
22:14 15.9 °F /  -8.9 °C 5.2 °F /  -14.9 °C 30.16in /  1021.2hPa NW 3.2mph /  5.1km/h 9mph /  14.5km/h 62% 0.00in /  0mm 0 W/m2
22:19 15.8 °F /  -9 °C 5.1 °F /  -14.9 °C 30.16in /  1021.2hPa NNW 3.3mph /  5.3km/h 9mph /  14.5km/h 62% 0.00in /  0mm 0 W/m2
22:24 15.7 °F /  -9.1 °C 5 °F /  -15 °C 30.17in /  1021.6hPa NW 2.5mph /  4km/h 10mph /  16.1km/h 62% 0.00in /  0mm 0 W/m2
22:29 15.6 °F /  -9.1 °C 5.3 °F /  -14.8 °C 30.17in /  1021.6hPa NW 1.5mph /  2.4km/h 10mph /  16.1km/h 63% 0.00in /  0mm 0 W/m2
22:34 15.5 °F /  -9.2 °C 5.2 °F /  -14.9 °C 30.17in /  1021.6hPa NW 0.2mph /  0.3km/h 10mph /  16.1km/h 63% 0.00in /  0mm 0 W/m2
22:39 15.4 °F /  -9.2 °C 5 °F /  -15 °C 30.17in /  1021.6hPa NW 2mph /  3.2km/h 7mph /  11.3km/h 63% 0.00in /  0mm 0 W/m2
22:44 15.2 °F /  -9.3 °C 4.9 °F /  -15.1 °C 30.17in /  1021.6hPa NNW 2.7mph /  4.3km/h 7mph /  11.3km/h 63% 0.00in /  0mm 0 W/m2
22:49 15.1 °F /  -9.4 °C 4.8 °F /  -15.1 °C 30.17in /  1021.6hPa NNW 1.4mph /  2.3km/h 7mph /  11.3km/h 63% 0.00in /  0mm 0 W/m2
22:54 15 °F /  -9.4 °C 4.7 °F /  -15.2 °C 30.17in /  1021.6hPa NNW 1.1mph /  1.8km/h 7mph /  11.3km/h 63.1% 0.00in /  0mm 0 W/m2
22:59 14.8 °F /  -9.6 °C 4.7 °F /  -15.2 °C 30.17in /  1021.6hPa North 2.2mph /  3.5km/h 7mph /  11.3km/h 63.4% 0.00in /  0mm 0 W/m2
23:04 14.7 °F /  -9.6 °C 4.7 °F /  -15.2 °C 30.17in /  1021.6hPa NNW 2.5mph /  4km/h 7mph /  11.3km/h 64% 0.00in /  0mm 0 W/m2
23:09 14.6 °F /  -9.7 °C 4.7 °F /  -15.2 °C 30.17in /  1021.6hPa NNW 2.1mph /  3.4km/h 7mph /  11.3km/h 64% 0.00in /  0mm 0 W/m2
23:14 14.5 °F /  -9.7 °C 4.6 °F /  -15.2 °C 30.17in /  1021.6hPa NNW 2.6mph /  4.2km/h 7mph /  11.3km/h 64% 0.00in /  0mm 0 W/m2
23:19 14.4 °F /  -9.8 °C 4.5 °F /  -15.3 °C 30.17in /  1021.6hPa NNW 1.7mph /  2.7km/h 7mph /  11.3km/h 64% 0.00in /  0mm 0 W/m2
23:24 14.3 °F /  -9.8 °C 4.4 °F /  -15.3 °C 30.17in /  1021.6hPa NNW 1.7mph /  2.7km/h 7mph /  11.3km/h 64% 0.00in /  0mm 0 W/m2
23:29 14.2 °F /  -9.9 °C 4.3 °F /  -15.4 °C 30.18in /  1021.9hPa NNW 1.8mph /  2.9km/h 7mph /  11.3km/h 64% 0.00in /  0mm 0 W/m2
23:34 14.1 °F /  -9.9 °C 4.2 °F /  -15.4 °C 30.18in /  1021.9hPa NNW 1.5mph /  2.4km/h 7mph /  11.3km/h 64% 0.00in /  0mm 0 W/m2
23:39 14 °F /  -10 °C 4.1 °F /  -15.5 °C 30.18in /  1021.9hPa NNW 0.7mph /  1.1km/h 6mph /  9.7km/h 64.2% 0.00in /  0mm 0 W/m2
23:44 13.8 °F /  -10.1 °C 4.3 °F /  -15.4 °C 30.18in /  1021.9hPa NNW 1.2mph /  1.9km/h 6mph /  9.7km/h 65% 0.00in /  0mm 0 W/m2
23:49 13.7 °F /  -10.2 °C 4 °F /  -15.6 °C 30.18in /  1021.9hPa NNW 1.5mph /  2.4km/h 6mph /  9.7km/h 64.5% 0.00in /  0mm 0 W/m2
23:54 13.6 °F /  -10.2 °C 4 °F /  -15.6 °C 30.18in /  1021.9hPa NNW 1.1mph /  1.8km/h 6mph /  9.7km/h 65% 0.00in /  0mm 0 W/m2
23:59 13.5 °F /  -10.3 °C 4 °F /  -15.6 °C 30.18in /  1021.9hPa NNW 1.3mph /  2.1km/h 6mph /  9.7km/h 65% 0.00in /  0mm 0 W/m2
Hartford County Weather
Compliments of Weather Underground - 4 mb